createdAt,value
2023-03-02T00:01:11.320Z,25.92
2023-03-02T00:04:18.119Z,22.70
2023-03-02T00:07:26.031Z,25.92
2023-03-02T00:10:28.755Z,24.23
2023-03-02T00:13:32.213Z,21.85
2023-03-02T00:16:34.946Z,24.38
2023-03-02T00:19:37.495Z,22.02
2023-03-02T00:22:43.429Z,22.60
2023-03-02T00:25:45.289Z,21.48
2023-03-02T00:28:49.430Z,22.77
2023-03-02T00:31:51.502Z,25.38
2023-03-02T00:34:53.515Z,21.17
2023-03-02T00:37:55.430Z,24.17
2023-03-02T00:40:57.283Z,20.52
2023-03-02T00:44:01.384Z,21.73
2023-03-02T00:47:03.402Z,23.70
2023-03-02T00:50:06.709Z,22.52
2023-03-02T00:53:08.954Z,21.50
2023-03-02T00:56:11.236Z,23.25
2023-03-02T00:59:17.989Z,22.45
2023-03-02T01:02:20.221Z,23.83
2023-03-02T01:05:22.691Z,25.13
2023-03-02T01:08:24.618Z,25.00
2023-03-02T01:11:26.530Z,20.65
2023-03-02T01:14:28.933Z,21.50
2023-03-02T01:17:30.788Z,21.55
2023-03-02T01:20:32.748Z,24.02
2023-03-02T01:23:34.709Z,23.63
2023-03-02T01:26:37.260Z,23.33
2023-03-02T01:29:39.952Z,21.08
2023-03-02T01:32:41.864Z,25.45
2023-03-02T01:35:47.303Z,23.25
2023-03-02T01:38:49.516Z,23.98
2023-03-02T01:41:52.737Z,19.27
2023-03-02T01:44:55.148Z,23.92
2023-03-02T01:47:57.019Z,24.42
2023-03-02T01:51:00.244Z,23.15
2023-03-02T01:54:09.209Z,22.67
2023-03-02T01:57:11.906Z,22.45
2023-03-02T02:00:18.593Z,22.60
2023-03-02T02:03:26.378Z,23.23
2023-03-02T02:06:40.704Z,24.23
2023-03-02T02:09:50.999Z,24.88
2023-03-02T02:12:52.936Z,25.50
2023-03-02T02:15:54.932Z,21.70
2023-03-02T02:18:57.768Z,27.60
2023-03-02T02:21:59.672Z,24.33
2023-03-02T02:25:05.177Z,21.75
2023-03-02T02:28:14.271Z,25.75
2023-03-02T02:31:29.099Z,24.17
2023-03-02T02:34:40.128Z,24.35
2023-03-02T02:37:49.694Z,25.10
2023-03-02T02:40:56.867Z,23.52
2023-03-02T02:44:04.133Z,25.05
2023-03-02T02:47:19.749Z,25.48
2023-03-02T02:50:35.716Z,23.50
2023-03-02T02:53:50.110Z,28.05
2023-03-02T02:56:56.353Z,22.52
2023-03-02T03:00:00.376Z,26.73
2023-03-02T03:03:13.516Z,29.58
2023-03-02T03:06:19.533Z,25.60
2023-03-02T03:09:22.134Z,27.17
2023-03-02T03:12:26.873Z,26.90
2023-03-02T03:15:28.936Z,24.98
2023-03-02T03:18:30.788Z,23.08
2023-03-02T03:21:32.820Z,26.88
2023-03-02T03:24:35.550Z,25.50
2023-03-02T03:27:39.171Z,28.55
2023-03-02T03:30:41.575Z,24.33
2023-03-02T03:33:43.652Z,28.58
2023-03-02T03:36:45.630Z,22.17
2023-03-02T03:39:47.665Z,21.77
2023-03-02T03:42:50.954Z,22.38
2023-03-02T03:45:53.344Z,25.02
2023-03-02T03:48:55.382Z,25.60
2023-03-02T03:51:57.324Z,26.42
2023-03-02T03:55:01.554Z,23.13
2023-03-02T03:58:04.228Z,30.23
2023-03-02T04:01:06.228Z,28.55
2023-03-02T04:04:12.045Z,24.45
2023-03-02T04:07:16.957Z,27.60
2023-03-02T04:10:20.227Z,24.30
2023-03-02T04:13:23.124Z,26.63
2023-03-02T04:16:25.341Z,28.20
2023-03-02T04:19:27.468Z,28.55
2023-03-02T04:22:32.392Z,23.65
2023-03-02T04:25:34.450Z,28.05
2023-03-02T04:28:56.682Z,24.05
2023-03-02T04:31:58.718Z,24.00
2023-03-02T04:35:02.364Z,26.15
2023-03-02T04:38:04.406Z,24.48
2023-03-02T04:41:06.415Z,23.15
2023-03-02T04:44:08.281Z,24.80
2023-03-02T04:47:10.961Z,21.63
2023-03-02T04:50:14.948Z,28.83
2023-03-02T04:53:16.830Z,23.33
2023-03-02T04:56:18.908Z,24.15
2023-03-02T04:59:26.276Z,23.38
2023-03-02T05:02:30.416Z,27.75
2023-03-02T05:05:33.169Z,28.30
2023-03-02T05:08:35.649Z,23.50
2023-03-02T05:14:45.908Z,28.15
2023-03-02T05:17:47.927Z,24.67
2023-03-02T05:20:53.312Z,31.08
2023-03-02T05:23:55.347Z,25.10
2023-03-02T05:26:57.362Z,26.00
2023-03-02T05:29:59.309Z,25.10
2023-03-02T05:33:01.274Z,28.17
2023-03-02T05:36:03.433Z,26.08
2023-03-02T05:39:07.280Z,27.00
2023-03-02T05:42:10.224Z,27.80
2023-03-02T05:45:31.808Z,26.50
2023-03-02T05:51:35.972Z,28.73
2023-03-02T05:54:37.983Z,26.60
2023-03-02T05:57:40.770Z,27.55
2023-03-02T06:00:44.192Z,26.27
2023-03-02T06:03:46.212Z,24.63
2023-03-02T06:06:48.256Z,29.17
2023-03-02T06:09:50.377Z,26.50
2023-03-02T06:12:52.503Z,27.92
2023-03-02T06:15:54.500Z,28.23
2023-03-02T06:18:56.502Z,23.50
2023-03-02T06:21:58.501Z,28.08
2023-03-02T06:25:00.488Z,26.45
2023-03-02T06:28:02.490Z,27.08
2023-03-02T06:31:04.683Z,26.77
2023-03-02T06:34:06.599Z,24.40
2023-03-02T06:37:08.490Z,28.55
2023-03-02T06:40:11.608Z,25.67
2023-03-02T06:43:14.060Z,28.48
2023-03-02T06:46:15.980Z,28.75
2023-03-02T06:49:17.974Z,24.48
2023-03-02T06:52:19.857Z,27.38
2023-03-02T06:55:22.521Z,29.80
2023-03-02T06:58:24.474Z,26.65
2023-03-02T07:01:26.585Z,29.58
2023-03-02T07:04:28.584Z,27.08
2023-03-02T07:07:30.497Z,23.55
2023-03-02T07:10:32.468Z,24.35
2023-03-02T07:13:34.352Z,27.55
2023-03-02T07:16:36.283Z,25.20
2023-03-02T07:19:40.656Z,23.95
2023-03-02T07:22:43.581Z,22.52
2023-03-02T07:25:45.475Z,21.40
2023-03-02T07:28:47.385Z,21.55
2023-03-02T07:31:49.272Z,22.67
2023-03-02T07:34:51.123Z,23.05
2023-03-02T07:37:53.086Z,22.10
2023-03-02T07:40:55.046Z,27.00
2023-03-02T07:43:57.156Z,22.70
2023-03-02T07:46:59.021Z,24.05
2023-03-02T07:50:00.895Z,22.02
2023-03-02T07:53:02.816Z,23.63
2023-03-02T07:56:09.323Z,22.67
2023-03-02T07:59:14.406Z,25.50
2023-03-02T08:02:18.126Z,27.65
2023-03-02T08:05:19.968Z,23.73
2023-03-02T08:08:24.358Z,24.05
2023-03-02T08:11:26.205Z,25.90
2023-03-02T08:14:28.673Z,23.35
2023-03-02T08:17:30.604Z,22.85
2023-03-02T08:20:32.579Z,23.50
2023-03-02T08:23:34.692Z,23.80
2023-03-02T08:26:36.793Z,24.15
2023-03-02T08:29:38.741Z,24.15
2023-03-02T08:32:41.287Z,24.98
2023-03-02T08:38:45.714Z,26.33
2023-03-02T08:44:51.757Z,22.45
2023-03-02T08:47:54.002Z,21.65
2023-03-02T08:50:57.008Z,21.55
2023-03-02T08:53:58.996Z,23.05
2023-03-02T08:57:01.846Z,23.45
2023-03-02T09:00:04.402Z,22.65
2023-03-02T09:03:08.471Z,23.90
2023-03-02T09:06:10.572Z,23.20
2023-03-02T09:09:14.443Z,23.35
2023-03-02T09:12:16.361Z,22.25
2023-03-02T09:15:18.557Z,23.55
2023-03-02T09:18:20.551Z,23.80
2023-03-02T09:21:23.038Z,29.02
2023-03-02T09:27:27.097Z,25.35
2023-03-02T09:30:29.099Z,24.25
2023-03-02T09:33:31.667Z,21.90
2023-03-02T09:36:33.697Z,22.92
2023-03-02T09:39:37.732Z,23.60
2023-03-02T09:43:01.429Z,22.55
2023-03-02T09:46:17.581Z,28.27
2023-03-02T09:49:55.772Z,23.65
2023-03-02T09:53:32.644Z,26.20
2023-03-02T09:56:38.784Z,23.45
2023-03-02T09:59:48.623Z,23.67
2023-03-02T10:02:56.229Z,21.48
2023-03-02T10:05:59.595Z,22.90
2023-03-02T10:09:01.880Z,24.35
2023-03-02T10:12:30.866Z,26.70
2023-03-02T10:15:54.633Z,23.67
2023-03-02T10:19:09.159Z,25.60
2023-03-02T10:22:27.710Z,22.83
2023-03-02T10:25:52.443Z,25.08
2023-03-02T10:29:11.491Z,24.13
2023-03-02T10:32:25.648Z,23.50
2023-03-02T10:35:30.846Z,21.13
2023-03-02T10:38:33.044Z,23.27
2023-03-02T10:41:40.972Z,25.48
2023-03-02T10:44:49.000Z,23.40
2023-03-02T10:48:04.571Z,22.63
2023-03-02T10:51:06.743Z,22.42
2023-03-02T10:54:14.323Z,22.88
2023-03-02T10:57:25.411Z,21.88
2023-03-02T11:00:29.162Z,22.88
2023-03-02T11:03:32.616Z,20.98
2023-03-02T11:06:36.805Z,20.23
2023-03-02T11:09:39.445Z,19.60
2023-03-02T11:12:46.538Z,21.15
2023-03-02T11:15:53.572Z,20.15
2023-03-02T11:19:01.082Z,19.40
2023-03-02T11:22:08.707Z,18.83
2023-03-02T11:25:25.632Z,20.63
2023-03-02T11:28:45.984Z,19.42
2023-03-02T11:32:06.194Z,19.15
2023-03-02T11:35:32.983Z,17.92
2023-03-02T11:38:55.257Z,22.63
2023-03-02T11:41:57.454Z,19.60
2023-03-02T11:45:04.154Z,21.95
2023-03-02T11:48:17.842Z,23.80
2023-03-02T12:03:37.729Z,23.63
2023-03-02T12:06:41.616Z,21.95
2023-03-02T12:09:43.767Z,19.42
2023-03-02T12:12:58.230Z,20.13
2023-03-02T12:16:00.246Z,19.30
2023-03-02T12:19:17.128Z,20.67
2023-03-02T12:22:32.201Z,18.77
2023-03-02T12:25:42.991Z,21.15
2023-03-02T12:29:22.575Z,20.48
2023-03-02T12:32:28.718Z,21.85
2023-03-02T12:35:33.800Z,20.27
2023-03-02T12:38:37.374Z,21.08
2023-03-02T12:41:57.882Z,18.00
2023-03-02T12:45:04.970Z,21.92
2023-03-02T12:48:42.183Z,24.70
2023-03-02T12:52:19.505Z,21.45
2023-03-02T12:55:22.346Z,20.60
2023-03-02T12:58:29.223Z,19.55
2023-03-02T13:01:33.047Z,20.13
2023-03-02T13:04:34.945Z,19.77
2023-03-02T13:07:40.164Z,21.05
2023-03-02T13:10:51.492Z,18.40
2023-03-02T13:13:53.939Z,21.63
2023-03-02T13:17:01.713Z,20.65
2023-03-02T13:20:05.660Z,22.00
2023-03-02T13:23:09.939Z,21.05
2023-03-02T13:26:31.597Z,18.98
2023-03-02T13:29:34.082Z,19.65
2023-03-02T13:32:40.201Z,18.58
2023-03-02T13:35:46.678Z,19.50
2023-03-02T13:38:51.707Z,19.02
2023-03-02T13:41:59.120Z,21.15
2023-03-02T13:45:19.754Z,20.25
2023-03-02T13:51:24.387Z,19.85
2023-03-02T13:54:30.225Z,19.15
2023-03-02T13:57:32.814Z,20.42
2023-03-02T14:00:35.500Z,20.02
2023-03-02T14:03:37.537Z,20.85
2023-03-02T14:06:39.455Z,18.63
2023-03-02T14:09:43.903Z,17.95
2023-03-02T14:13:07.515Z,23.10
2023-03-02T14:16:16.312Z,19.17
2023-03-02T14:19:18.508Z,19.73
2023-03-02T14:22:21.477Z,19.75
2023-03-02T14:25:23.448Z,20.67
2023-03-02T14:28:32.911Z,23.30
2023-03-02T14:31:35.255Z,17.13
2023-03-02T14:37:49.059Z,22.35
2023-03-02T14:40:50.986Z,23.45
2023-03-02T14:43:52.937Z,23.27
2023-03-02T14:46:54.812Z,23.67
2023-03-02T14:49:56.730Z,25.42
2023-03-02T14:52:59.212Z,23.02
2023-03-02T14:56:01.716Z,25.10
2023-03-02T15:02:15.919Z,24.17
2023-03-02T15:05:26.132Z,29.13
2023-03-02T15:08:28.033Z,26.42
2023-03-02T15:11:32.673Z,22.55
2023-03-02T15:14:34.768Z,23.23
2023-03-02T15:17:36.738Z,25.08
2023-03-02T15:20:39.465Z,25.15
2023-03-02T15:23:41.438Z,22.65
2023-03-02T15:29:50.317Z,25.33
2023-03-02T15:32:52.304Z,24.50
2023-03-02T15:35:55.471Z,25.63
2023-03-02T15:38:57.727Z,27.17
2023-03-02T15:42:06.300Z,28.60
2023-03-02T15:45:08.396Z,25.65
2023-03-02T15:48:12.565Z,25.33
2023-03-02T15:51:15.410Z,27.55
2023-03-02T15:54:17.641Z,24.30
2023-03-02T15:57:19.716Z,26.17
2023-03-02T16:00:21.988Z,29.67
2023-03-02T16:03:24.483Z,23.40
2023-03-02T16:06:26.921Z,24.65
2023-03-02T16:09:31.345Z,24.27
2023-03-02T16:12:33.347Z,26.13
2023-03-02T16:15:39.711Z,26.50
2023-03-02T16:18:41.607Z,24.70
2023-03-02T16:21:43.776Z,24.52
2023-03-02T16:24:45.696Z,24.23
2023-03-02T16:27:47.581Z,24.52
2023-03-02T16:30:49.444Z,30.00
2023-03-02T16:33:51.340Z,25.73
2023-03-02T16:36:53.292Z,26.25
2023-03-02T16:39:55.222Z,26.25
2023-03-02T16:42:57.108Z,27.52
2023-03-02T16:45:59.693Z,25.73
2023-03-02T16:52:03.859Z,27.15
2023-03-02T16:55:18.435Z,28.33
2023-03-02T16:58:22.516Z,27.73
2023-03-02T17:01:24.733Z,25.58
2023-03-02T17:04:26.659Z,25.90
2023-03-02T17:07:28.570Z,25.40
2023-03-02T17:10:30.508Z,28.33
2023-03-02T17:13:32.483Z,29.83
2023-03-02T17:16:34.357Z,25.67
2023-03-02T17:19:36.547Z,26.15
2023-03-02T17:22:38.775Z,30.80
2023-03-02T17:25:40.757Z,29.70
2023-03-02T17:28:42.795Z,29.17
2023-03-02T17:31:44.794Z,28.30
2023-03-02T17:34:47.440Z,29.13
2023-03-02T17:37:49.406Z,29.30
2023-03-02T17:40:51.280Z,32.25
2023-03-02T17:43:53.193Z,31.17
2023-03-02T17:46:55.138Z,29.88
2023-03-02T17:49:57.050Z,23.70
2023-03-02T17:52:59.665Z,28.85
2023-03-02T17:56:01.599Z,24.02
2023-03-02T17:59:04.792Z,29.73
2023-03-02T18:02:06.691Z,27.83
2023-03-02T18:05:09.590Z,27.65
2023-03-02T18:08:11.526Z,26.00
2023-03-02T18:11:13.586Z,31.27
2023-03-02T18:14:18.188Z,28.95
2023-03-02T18:17:20.317Z,30.08
2023-03-02T18:20:22.264Z,31.00
2023-03-02T18:23:26.634Z,28.38
2023-03-02T18:26:28.601Z,33.40
2023-03-02T18:29:30.578Z,33.95
2023-03-02T18:32:32.486Z,32.60
2023-03-02T18:35:34.700Z,28.40
2023-03-02T18:38:37.723Z,30.88
2023-03-02T18:41:40.020Z,32.30
2023-03-02T18:44:42.350Z,29.95
2023-03-02T18:47:46.163Z,35.42
2023-03-02T18:50:48.484Z,34.72
2023-03-02T18:53:51.879Z,32.50
2023-03-02T18:56:53.932Z,31.88
2023-03-02T18:59:56.103Z,35.85
2023-03-02T19:03:01.180Z,33.38
2023-03-02T19:06:04.442Z,35.60
2023-03-02T19:09:06.524Z,38.17
2023-03-02T19:12:08.614Z,31.70
2023-03-02T19:15:11.974Z,34.33
2023-03-02T19:18:24.117Z,31.70
2023-03-02T19:21:26.077Z,36.65
2023-03-02T19:24:28.236Z,32.80
2023-03-02T19:27:30.170Z,38.45
2023-03-02T19:30:32.637Z,30.83
2023-03-02T19:33:35.082Z,31.17
2023-03-02T19:36:36.911Z,34.25
2023-03-02T19:39:39.276Z,31.05
2023-03-02T19:42:44.228Z,33.10
2023-03-02T19:45:46.133Z,32.95
2023-03-02T19:48:48.322Z,36.67
2023-03-02T19:51:50.256Z,31.77
2023-03-02T19:54:52.250Z,35.47
2023-03-02T19:57:54.263Z,32.83
2023-03-02T20:00:56.203Z,34.92
2023-03-02T20:03:58.830Z,37.40
2023-03-02T20:07:03.125Z,35.95
2023-03-02T20:10:07.036Z,36.90
2023-03-02T20:13:09.881Z,32.65
2023-03-02T20:19:15.806Z,30.38
2023-03-02T20:22:17.699Z,38.33
2023-03-02T20:25:20.343Z,35.30
2023-03-02T20:28:23.642Z,40.47
2023-03-02T20:31:26.289Z,38.85
2023-03-02T20:34:29.027Z,39.53
2023-03-02T20:37:31.109Z,37.35
2023-03-02T20:40:34.163Z,36.55
2023-03-02T20:46:48.132Z,39.45
2023-03-02T20:49:50.122Z,35.47
2023-03-02T20:52:59.252Z,41.03
2023-03-02T20:56:01.239Z,39.33
2023-03-02T20:59:03.815Z,41.08
2023-03-02T21:02:06.108Z,38.55
2023-03-02T21:05:08.362Z,41.92
2023-03-02T21:08:12.151Z,38.08
2023-03-02T21:11:16.897Z,40.63
2023-03-02T21:14:19.049Z,34.78
2023-03-02T21:17:20.967Z,38.03
2023-03-02T21:20:24.990Z,36.28
2023-03-02T21:23:27.186Z,36.42
2023-03-02T21:26:29.103Z,41.35
2023-03-02T21:29:31.013Z,38.83
2023-03-02T21:32:33.509Z,42.78
2023-03-02T21:35:35.906Z,41.70
2023-03-02T21:38:37.853Z,40.55
2023-03-02T21:41:40.024Z,39.17
2023-03-02T21:44:42.797Z,37.50
2023-03-02T21:47:45.760Z,36.78
2023-03-02T21:53:52.237Z,38.45
2023-03-02T21:56:54.182Z,40.42
2023-03-02T21:59:56.187Z,42.20
2023-03-02T22:02:58.459Z,40.55
2023-03-02T22:06:00.432Z,41.95
2023-03-02T22:09:03.063Z,48.17
2023-03-02T22:12:13.358Z,43.85
2023-03-02T22:15:15.711Z,42.78
2023-03-02T22:18:20.902Z,39.72
2023-03-02T22:21:28.570Z,42.35
2023-03-02T22:24:32.300Z,43.35
2023-03-02T22:27:35.605Z,38.45
2023-03-02T22:30:37.585Z,47.33
2023-03-02T22:33:39.616Z,46.15
2023-03-02T22:36:42.170Z,45.08
2023-03-02T22:39:45.143Z,40.92
2023-03-02T22:45:52.397Z,37.92
2023-03-02T22:48:54.609Z,40.63
2023-03-02T22:52:01.384Z,40.83
2023-03-02T22:55:23.483Z,41.50
2023-03-02T22:58:28.254Z,38.28
2023-03-02T23:01:43.256Z,41.30
2023-03-02T23:07:47.680Z,41.83
2023-03-02T23:10:51.521Z,44.75
2023-03-02T23:13:53.754Z,44.55
2023-03-02T23:17:01.714Z,42.53
2023-03-02T23:20:06.664Z,48.45
2023-03-02T23:23:08.692Z,44.28
2023-03-02T23:26:10.709Z,45.72
2023-03-02T23:29:13.051Z,49.60
2023-03-02T23:32:16.667Z,40.40
2023-03-02T23:35:19.813Z,44.35
2023-03-02T23:38:21.856Z,46.58
2023-03-02T23:41:23.920Z,44.35
2023-03-02T23:44:25.921Z,40.00
2023-03-02T23:47:27.920Z,41.63
2023-03-02T23:50:29.931Z,43.55
2023-03-02T23:53:32.288Z,53.20
2023-03-02T23:56:34.304Z,52.78
2023-03-02T23:59:38.720Z,45.30
